Aérodrome :







RETROUVEZ-NOUS SUR...

 
LOGIN :

S'inscrire | Disclaimer

   EN    FR    IT 

 









Légende :    VFR   VFR Marginal   IFR   IFR Intensif   IFR Très Intensif
Visi : 
Plafond : 
>= 8 km
>= 3000ft
5 à 8 km
1000 à 3000 ft
1500m à 5 km
500 à 1000 ft
800 à 1500m
200 à 500 ft
< 800m
< 200 ft
Symboles :   Orages  Brouillard  Fortes neiges  Fortes précipitations  Vent > 20 kt






- Altitude de l'aérodrome : 23 ft
- Code IATA : STT


TIST - King

DERNIER METAR :
  • 211953Z 11012KT 10SM CLR 28/20 A2991 RMK AO2 SLP130 T02780200

METARs EXPIRÉS :
  • 211853Z 15015G19KT 10SM FEW040 27/21 A2993 RMK AO2 SLP134 T02720206 $
  • 211753Z 15015G19KT 10SM FEW041 27/20 A2995 RMK AO2 SLP142 T02720200 10278 20244 58024 $

TAF TIST
Valide du 21 à 19h jusqu'au 22 à 18h UTC


211927Z 2119/2218 14015KT P6SM SCT040
FM212300 10006KT P6SM VCSH FEW025 SCT050
FM221200 12012KT P6SM VCSH FEW028 SCT040



MET'MAP, la Météo Aéronautique d'un coup d'oeil ! - Copyright ORBIFLY Décembre 2007 - Disclaimer

ORBIFLY MET'MAP TEAM :

Programmation & Développement : Alexandra Zaïnal
Sur une idée originale de : Baudouin d'Aumeries
Assistance à la programmation : Marc-Olivier Méhu
Soutien technique & logistique : Manuel Goepfert

Contact : metmap@orbifly.com




SOURCES & CREDITS :

   NOAA